NKS69 KATL-KFLL
Flight info
| Callsign | NKS69 |
|---|---|
| Flight time | 1h 26m |
| Altitude | 35000 |
| Route | SMLTZ3 WALET ZPLEN TEEKY4 |
| Aircraft | A321/M-SDE3FGHIRWY/LB1 |
Departure
| Time | 2026-05-03 21:19 |
|---|---|
| Airport | Hartsfield Jackson Atlanta International Airport (KATL) |
Arrival
| Time | 2026-05-03 22:46 |
|---|---|
| Airport | Fort Lauderdale Hollywood International Airport (KFLL) |
| Time | Latitude | Longitude | Altitude | Speed | Heading |
|---|---|---|---|---|---|
| 2026-05-03 20:33 | 33.63862 | -84.42986 | 1010 ft | 0 kts | 90° |
| 2026-05-03 20:58 | 33.63862 | -84.43002 | 1009 ft | 3 kts | 88° |
| 2026-05-03 20:58 | 33.63863 | -84.43026 | 1009 ft | 3 kts | 111° |
| 2026-05-03 20:59 | 33.63868 | -84.43040 | 1009 ft | 0 kts | 128° |
| 2026-05-03 21:01 | 33.63867 | -84.43038 | 1009 ft | 2 kts | 130° |
| 2026-05-03 21:01 | 33.63845 | -84.43037 | 1006 ft | 6 kts | 188° |
| 2026-05-03 21:01 | 33.63793 | -84.43054 | 1007 ft | 9 kts | 194° |
| 2026-05-03 21:01 | 33.63727 | -84.43064 | 1007 ft | 10 kts | 183° |
| 2026-05-03 21:02 | 33.63666 | -84.43021 | 1007 ft | 13 kts | 112° |
| 2026-05-03 21:02 | 33.63664 | -84.42885 | 1006 ft | 19 kts | 89° |
| 2026-05-03 21:02 | 33.63659 | -84.42732 | 1008 ft | 18 kts | 96° |
| 2026-05-03 21:02 | 33.63655 | -84.42586 | 1009 ft | 18 kts | 88° |
| 2026-05-03 21:03 | 33.63655 | -84.42427 | 1006 ft | 20 kts | 89° |
| 2026-05-03 21:03 | 33.63655 | -84.42255 | 1006 ft | 21 kts | 91° |
| 2026-05-03 21:03 | 33.63656 | -84.42078 | 1003 ft | 22 kts | 88° |
| 2026-05-03 21:03 | 33.63656 | -84.41875 | 996 ft | 26 kts | 89° |
| 2026-05-03 21:04 | 33.63656 | -84.41654 | 998 ft | 27 kts | 91° |
| 2026-05-03 21:04 | 33.63654 | -84.41425 | 987 ft | 25 kts | 90° |
| 2026-05-03 21:04 | 33.63655 | -84.41278 | 988 ft | 14 kts | 90° |
| 2026-05-03 21:04 | 33.63655 | -84.41165 | 991 ft | 14 kts | 90° |
| 2026-05-03 21:05 | 33.63655 | -84.41110 | 993 ft | 0 kts | 90° |
| 2026-05-03 21:07 | 33.63655 | -84.41108 | 993 ft | 0 kts | 90° |
| 2026-05-03 21:07 | 33.63655 | -84.41102 | 993 ft | 2 kts | 90° |
| 2026-05-03 21:08 | 33.63655 | -84.41077 | 989 ft | 4 kts | 90° |
| 2026-05-03 21:08 | 33.63655 | -84.41035 | 993 ft | 6 kts | 90° |
| 2026-05-03 21:08 | 33.63655 | -84.41015 | 990 ft | 0 kts | 90° |
| 2026-05-03 21:10 | 33.63655 | -84.41014 | 990 ft | 1 kts | 90° |
| 2026-05-03 21:10 | 33.63655 | -84.41011 | 990 ft | 1 kts | 90° |
| 2026-05-03 21:10 | 33.63655 | -84.40989 | 989 ft | 4 kts | 90° |
| 2026-05-03 21:10 | 33.63655 | -84.40954 | 987 ft | 2 kts | 90° |
| 2026-05-03 21:11 | 33.63655 | -84.40946 | 992 ft | 1 kts | 90° |
| 2026-05-03 21:11 | 33.63654 | -84.40937 | 991 ft | 0 kts | 102° |
| 2026-05-03 21:13 | 33.63653 | -84.40936 | 991 ft | 0 kts | 103° |
| 2026-05-03 21:13 | 33.63646 | -84.40923 | 995 ft | 4 kts | 129° |
| 2026-05-03 21:13 | 33.63620 | -84.40911 | 989 ft | 5 kts | 170° |
| 2026-05-03 21:14 | 33.63608 | -84.40910 | 992 ft | 0 kts | 177° |
| 2026-05-03 21:16 | 33.63597 | -84.40910 | 991 ft | 5 kts | 177° |
| 2026-05-03 21:16 | 33.63577 | -84.40909 | 989 ft | 0 kts | 179° |
| 2026-05-03 21:17 | 33.63575 | -84.40909 | 992 ft | 2 kts | 179° |
| 2026-05-03 21:17 | 33.63536 | -84.40908 | 992 ft | 8 kts | 180° |
| 2026-05-03 21:17 | 33.63477 | -84.40936 | 989 ft | 7 kts | 255° |
| 2026-05-03 21:17 | 33.63471 | -84.40984 | 989 ft | 0 kts | 269° |
| 2026-05-03 21:18 | 33.63471 | -84.40985 | 989 ft | 1 kts | 269° |
| 2026-05-03 21:18 | 33.63471 | -84.41136 | 988 ft | 51 kts | 270° |
| 2026-05-03 21:18 | 33.63470 | -84.41833 | 998 ft | 114 kts | 270° |
| 2026-05-03 21:19 | 33.63469 | -84.42992 | 1010 ft | 162 kts | 270° |
| 2026-05-03 21:19 | 33.63458 | -84.44392 | 1427 ft | 171 kts | 270° |
| 2026-05-03 21:19 | 33.63446 | -84.45830 | 2118 ft | 173 kts | 272° |
| 2026-05-03 21:19 | 33.63444 | -84.47274 | 2809 ft | 174 kts | 272° |
| 2026-05-03 21:20 | 33.63446 | -84.48788 | 3086 ft | 190 kts | 271° |
| 2026-05-03 21:20 | 33.63451 | -84.50478 | 3281 ft | 214 kts | 271° |
| 2026-05-03 21:20 | 33.63454 | -84.52374 | 3489 ft | 240 kts | 271° |
| 2026-05-03 21:20 | 33.63455 | -84.54445 | 3932 ft | 253 kts | 271° |
| 2026-05-03 21:21 | 33.63450 | -84.56579 | 4638 ft | 258 kts | 270° |
| 2026-05-03 21:21 | 33.63446 | -84.58742 | 5430 ft | 260 kts | 271° |
| 2026-05-03 21:21 | 33.63446 | -84.60932 | 6178 ft | 264 kts | 271° |
| 2026-05-03 21:21 | 33.63362 | -84.63146 | 6905 ft | 269 kts | 261° |
| 2026-05-03 21:22 | 33.62723 | -84.65276 | 7563 ft | 276 kts | 241° |
| 2026-05-03 21:22 | 33.61473 | -84.67044 | 8278 ft | 283 kts | 220° |
| 2026-05-03 21:22 | 33.59787 | -84.68293 | 9025 ft | 287 kts | 209° |
| 2026-05-03 21:22 | 33.57894 | -84.69121 | 9736 ft | 294 kts | 194° |
| 2026-05-03 21:23 | 33.55842 | -84.69345 | 10395 ft | 300 kts | 179° |
| 2026-05-03 21:23 | 33.53738 | -84.69052 | 10357 ft | 307 kts | 173° |
| 2026-05-03 21:23 | 33.51650 | -84.68667 | 10059 ft | 307 kts | 173° |
| 2026-05-03 21:23 | 33.49564 | -84.68259 | 10010 ft | 300 kts | 173° |
| 2026-05-03 21:24 | 33.47481 | -84.67849 | 10324 ft | 308 kts | 173° |
| 2026-05-03 21:24 | 33.45341 | -84.67433 | 10881 ft | 315 kts | 173° |
| 2026-05-03 21:24 | 33.43195 | -84.66818 | 11528 ft | 321 kts | 161° |
| 2026-05-03 21:24 | 33.41195 | -84.65599 | 12176 ft | 326 kts | 147° |
| 2026-05-03 21:25 | 33.39467 | -84.63819 | 12822 ft | 331 kts | 136° |
| 2026-05-03 21:25 | 33.37833 | -84.61865 | 13484 ft | 334 kts | 136° |
| 2026-05-03 21:25 | 33.36175 | -84.59896 | 14124 ft | 337 kts | 137° |
| 2026-05-03 21:25 | 33.34498 | -84.57914 | 14699 ft | 340 kts | 137° |
| 2026-05-03 21:26 | 33.32808 | -84.55920 | 15268 ft | 343 kts | 137° |
| 2026-05-03 21:26 | 33.31103 | -84.53909 | 15828 ft | 346 kts | 137° |
| 2026-05-03 21:26 | 33.29381 | -84.51878 | 16373 ft | 351 kts | 137° |
| 2026-05-03 21:26 | 33.27595 | -84.49778 | 16476 ft | 369 kts | 138° |
| 2026-05-03 21:27 | 33.25723 | -84.47582 | 16694 ft | 383 kts | 137° |
| 2026-05-03 21:27 | 33.23808 | -84.45333 | 17151 ft | 389 kts | 137° |
| 2026-05-03 21:27 | 33.21872 | -84.43056 | 17693 ft | 392 kts | 138° |
| 2026-05-03 21:27 | 33.19918 | -84.40759 | 18268 ft | 396 kts | 138° |
| 2026-05-03 21:28 | 33.17950 | -84.38442 | 18769 ft | 399 kts | 138° |
| 2026-05-03 21:28 | 33.15961 | -84.36104 | 19249 ft | 402 kts | 138° |
| 2026-05-03 21:28 | 33.13961 | -84.33759 | 19736 ft | 404 kts | 138° |
| 2026-05-03 21:28 | 33.11945 | -84.31398 | 20237 ft | 407 kts | 138° |
| 2026-05-03 21:29 | 33.09917 | -84.29024 | 20726 ft | 410 kts | 138° |
| 2026-05-03 21:29 | 33.07876 | -84.26632 | 21218 ft | 413 kts | 139° |
| 2026-05-03 21:29 | 33.05841 | -84.24253 | 21705 ft | 416 kts | 139° |
| 2026-05-03 21:29 | 33.03767 | -84.21833 | 22176 ft | 419 kts | 139° |
| 2026-05-03 21:30 | 33.01646 | -84.19448 | 22643 ft | 420 kts | 144° |
| 2026-05-03 21:30 | 32.99273 | -84.17446 | 23096 ft | 418 kts | 154° |
| 2026-05-03 21:30 | 32.96660 | -84.15942 | 23547 ft | 415 kts | 164° |
| 2026-05-03 21:30 | 32.93926 | -84.14818 | 23944 ft | 417 kts | 166° |
| 2026-05-03 21:31 | 32.91174 | -84.13696 | 24314 ft | 419 kts | 166° |
| 2026-05-03 21:31 | 32.88411 | -84.12557 | 24678 ft | 421 kts | 166° |
| 2026-05-03 21:31 | 32.85634 | -84.11406 | 25051 ft | 423 kts | 166° |
| 2026-05-03 21:31 | 32.82823 | -84.10245 | 25205 ft | 432 kts | 166° |
| 2026-05-03 21:32 | 32.79965 | -84.09070 | 25412 ft | 437 kts | 166° |
| 2026-05-03 21:32 | 32.77077 | -84.07878 | 25726 ft | 440 kts | 167° |
| 2026-05-03 21:32 | 32.74177 | -84.06682 | 26058 ft | 442 kts | 167° |
| 2026-05-03 21:32 | 32.71257 | -84.05485 | 26393 ft | 444 kts | 167° |
| 2026-05-03 21:33 | 32.68326 | -84.04289 | 26730 ft | 446 kts | 167° |
| 2026-05-03 21:33 | 32.65387 | -84.03088 | 27055 ft | 448 kts | 167° |
| 2026-05-03 21:33 | 32.62431 | -84.01880 | 27368 ft | 450 kts | 167° |
| 2026-05-03 21:33 | 32.59464 | -84.00664 | 27708 ft | 452 kts | 168° |
| 2026-05-03 21:34 | 32.56483 | -83.99447 | 28026 ft | 454 kts | 168° |
| 2026-05-03 21:34 | 32.53488 | -83.98227 | 28347 ft | 456 kts | 168° |
| 2026-05-03 21:34 | 32.50485 | -83.97004 | 28667 ft | 458 kts | 168° |
| 2026-05-03 21:34 | 32.47465 | -83.95771 | 28981 ft | 460 kts | 168° |
| 2026-05-03 21:35 | 32.44436 | -83.94532 | 29285 ft | 462 kts | 168° |
| 2026-05-03 21:35 | 32.41397 | -83.93285 | 29607 ft | 463 kts | 168° |
| 2026-05-03 21:35 | 32.38356 | -83.92037 | 30052 ft | 462 kts | 169° |
| 2026-05-03 21:35 | 32.35324 | -83.90806 | 30456 ft | 459 kts | 170° |
| 2026-05-03 21:36 | 32.32293 | -83.89652 | 30835 ft | 456 kts | 171° |
| 2026-05-03 21:36 | 32.29258 | -83.88565 | 31226 ft | 453 kts | 172° |
| 2026-05-03 21:36 | 32.26235 | -83.87515 | 31622 ft | 451 kts | 173° |
| 2026-05-03 21:36 | 32.23221 | -83.86476 | 32020 ft | 449 kts | 173° |
| 2026-05-03 21:37 | 32.20270 | -83.85450 | 32406 ft | 447 kts | 173° |
| 2026-05-03 21:37 | 32.17299 | -83.84406 | 32797 ft | 445 kts | 173° |
| 2026-05-03 21:37 | 32.14340 | -83.83354 | 33182 ft | 443 kts | 173° |
| 2026-05-03 21:37 | 32.11395 | -83.82296 | 33565 ft | 441 kts | 173° |
| 2026-05-03 21:38 | 32.08467 | -83.81240 | 33941 ft | 439 kts | 173° |
| 2026-05-03 21:38 | 32.05551 | -83.80191 | 34291 ft | 437 kts | 173° |
| 2026-05-03 21:38 | 32.02647 | -83.79150 | 34583 ft | 436 kts | 174° |
| 2026-05-03 21:38 | 31.99740 | -83.78112 | 34843 ft | 435 kts | 174° |
| 2026-05-03 21:39 | 31.96835 | -83.77080 | 35065 ft | 436 kts | 174° |
| 2026-05-03 21:39 | 31.93933 | -83.76049 | 35128 ft | 435 kts | 174° |
| 2026-05-03 21:39 | 31.88175 | -83.74004 | 35136 ft | 430 kts | 174° |
| 2026-05-03 21:40 | 31.82455 | -83.71979 | 35135 ft | 429 kts | 174° |
| 2026-05-03 21:40 | 31.76744 | -83.69956 | 35139 ft | 428 kts | 174° |
| 2026-05-03 21:41 | 31.71067 | -83.67943 | 35141 ft | 428 kts | 174° |
| 2026-05-03 21:41 | 31.65365 | -83.65879 | 35141 ft | 429 kts | 173° |
| 2026-05-03 21:42 | 31.59681 | -83.63676 | 35141 ft | 430 kts | 173° |
| 2026-05-03 21:42 | 31.54004 | -83.61447 | 35139 ft | 430 kts | 173° |
| 2026-05-03 21:43 | 31.48318 | -83.59257 | 35142 ft | 430 kts | 173° |
| 2026-05-03 21:43 | 31.42631 | -83.57088 | 35143 ft | 430 kts | 173° |
| 2026-05-03 21:44 | 31.36937 | -83.54919 | 35135 ft | 430 kts | 173° |
| 2026-05-03 21:44 | 31.31244 | -83.52746 | 35134 ft | 430 kts | 173° |
| 2026-05-03 21:45 | 31.25526 | -83.50562 | 35139 ft | 437 kts | 173° |
| 2026-05-03 21:45 | 31.19739 | -83.48367 | 35134 ft | 441 kts | 173° |
| 2026-05-03 21:46 | 31.13888 | -83.46141 | 35128 ft | 442 kts | 173° |
| 2026-05-03 21:46 | 31.07975 | -83.43903 | 35128 ft | 451 kts | 173° |
| 2026-05-03 21:47 | 31.01977 | -83.41633 | 35123 ft | 454 kts | 173° |
| 2026-05-03 21:47 | 30.95972 | -83.39350 | 35121 ft | 454 kts | 173° |
| 2026-05-03 21:48 | 30.89962 | -83.37066 | 35133 ft | 454 kts | 173° |
| 2026-05-03 21:48 | 30.83954 | -83.34797 | 35131 ft | 454 kts | 173° |
| 2026-05-03 21:49 | 30.77981 | -83.32545 | 35132 ft | 454 kts | 173° |
| 2026-05-03 21:49 | 30.71962 | -83.30277 | 35131 ft | 455 kts | 172° |
| 2026-05-03 21:50 | 30.66062 | -83.27256 | 35125 ft | 465 kts | 166° |
| 2026-05-03 21:50 | 30.60185 | -83.24083 | 35133 ft | 465 kts | 167° |
| 2026-05-03 21:51 | 30.54314 | -83.20928 | 35140 ft | 465 kts | 167° |
| 2026-05-03 21:51 | 30.48478 | -83.17791 | 35140 ft | 465 kts | 167° |
| 2026-05-03 21:52 | 30.42608 | -83.14638 | 35141 ft | 465 kts | 167° |
| 2026-05-03 21:52 | 30.36734 | -83.11489 | 35138 ft | 465 kts | 167° |
| 2026-05-03 21:53 | 30.30863 | -83.08350 | 35140 ft | 465 kts | 167° |
| 2026-05-03 21:53 | 30.24983 | -83.05208 | 35143 ft | 465 kts | 167° |
| 2026-05-03 21:54 | 30.19112 | -83.02076 | 35133 ft | 465 kts | 167° |
| 2026-05-03 21:54 | 30.13274 | -82.98961 | 35134 ft | 465 kts | 167° |
| 2026-05-03 21:55 | 30.07390 | -82.95831 | 35130 ft | 465 kts | 167° |
| 2026-05-03 21:55 | 30.01517 | -82.92712 | 35124 ft | 465 kts | 167° |
| 2026-05-03 21:56 | 29.95628 | -82.89580 | 35122 ft | 465 kts | 167° |
| 2026-05-03 21:56 | 29.89783 | -82.86481 | 35116 ft | 465 kts | 167° |
| 2026-05-03 21:57 | 29.83888 | -82.83362 | 35110 ft | 465 kts | 167° |
| 2026-05-03 21:57 | 29.78001 | -82.80249 | 35111 ft | 465 kts | 167° |
| 2026-05-03 21:58 | 29.72116 | -82.77142 | 35104 ft | 465 kts | 167° |
| 2026-05-03 21:58 | 29.66228 | -82.74032 | 35100 ft | 465 kts | 167° |
| 2026-05-03 21:59 | 29.60346 | -82.70933 | 35104 ft | 465 kts | 168° |
| 2026-05-03 21:59 | 29.54462 | -82.67839 | 35102 ft | 465 kts | 168° |
| 2026-05-03 22:00 | 29.48577 | -82.64745 | 35099 ft | 464 kts | 168° |
| 2026-05-03 22:00 | 29.42742 | -82.61685 | 35099 ft | 464 kts | 168° |
| 2026-05-03 22:01 | 29.36874 | -82.58605 | 35097 ft | 464 kts | 168° |
| 2026-05-03 22:01 | 29.30995 | -82.55529 | 35094 ft | 463 kts | 168° |
| 2026-05-03 22:02 | 29.25054 | -82.53113 | 35093 ft | 439 kts | 182° |
| 2026-05-03 22:02 | 29.22073 | -82.52713 | 35091 ft | 424 kts | 190° |
| 2026-05-03 22:02 | 29.19145 | -82.52707 | 35093 ft | 420 kts | 192° |
| 2026-05-03 22:03 | 29.13326 | -82.52723 | 35092 ft | 420 kts | 192° |
| 2026-05-03 22:03 | 29.07471 | -82.52720 | 35085 ft | 420 kts | 192° |
| 2026-05-03 22:04 | 29.02604 | -82.52715 | 35085 ft | 420 kts | 192° |
| 2026-05-03 22:04 | 28.96750 | -82.52714 | 35079 ft | 420 kts | 192° |
| 2026-05-03 22:05 | 28.90898 | -82.52707 | 35079 ft | 420 kts | 192° |
| 2026-05-03 22:05 | 28.85046 | -82.52699 | 35079 ft | 420 kts | 192° |
| 2026-05-03 22:06 | 28.79194 | -82.52698 | 35079 ft | 420 kts | 192° |
| 2026-05-03 22:06 | 28.73340 | -82.52699 | 35080 ft | 421 kts | 192° |
| 2026-05-03 22:07 | 28.67525 | -82.52702 | 35082 ft | 421 kts | 192° |
| 2026-05-03 22:07 | 28.61655 | -82.52694 | 35078 ft | 422 kts | 192° |
| 2026-05-03 22:08 | 28.55787 | -82.52683 | 35081 ft | 422 kts | 191° |
| 2026-05-03 22:08 | 28.49910 | -82.52674 | 35080 ft | 422 kts | 192° |
| 2026-05-03 22:09 | 28.44034 | -82.52679 | 35078 ft | 423 kts | 192° |
| 2026-05-03 22:10 | 28.35197 | -82.52681 | 35075 ft | 424 kts | 192° |
| 2026-05-03 22:10 | 28.29294 | -82.52678 | 35080 ft | 424 kts | 191° |
| 2026-05-03 22:11 | 28.23376 | -82.52674 | 35077 ft | 425 kts | 191° |
| 2026-05-03 22:11 | 28.17494 | -82.52672 | 35070 ft | 426 kts | 191° |
| 2026-05-03 22:12 | 28.11567 | -82.52668 | 35062 ft | 426 kts | 191° |
| 2026-05-03 22:12 | 28.05619 | -82.52668 | 35062 ft | 427 kts | 191° |
| 2026-05-03 22:13 | 27.99627 | -82.52350 | 35056 ft | 443 kts | 181° |
| 2026-05-03 22:13 | 27.96590 | -82.51499 | 35063 ft | 456 kts | 174° |
| 2026-05-03 22:13 | 27.93552 | -82.50410 | 35063 ft | 457 kts | 174° |
| 2026-05-03 22:14 | 27.87485 | -82.48237 | 35055 ft | 457 kts | 174° |
| 2026-05-03 22:14 | 27.81406 | -82.46084 | 35053 ft | 458 kts | 174° |
| 2026-05-03 22:15 | 27.75320 | -82.43933 | 35049 ft | 459 kts | 174° |
| 2026-05-03 22:15 | 27.69260 | -82.41789 | 35056 ft | 459 kts | 174° |
| 2026-05-03 22:16 | 27.63155 | -82.39628 | 35056 ft | 460 kts | 174° |
| 2026-05-03 22:16 | 27.57044 | -82.37470 | 35062 ft | 460 kts | 174° |
| 2026-05-03 22:17 | 27.50924 | -82.35308 | 35053 ft | 461 kts | 174° |
| 2026-05-03 22:17 | 27.44801 | -82.33152 | 35059 ft | 459 kts | 174° |
| 2026-05-03 22:18 | 27.38727 | -82.30977 | 35057 ft | 461 kts | 170° |
| 2026-05-03 22:18 | 27.35771 | -82.29440 | 35065 ft | 476 kts | 162° |
| 2026-05-03 22:18 | 27.32883 | -82.27609 | 35046 ft | 477 kts | 162° |
| 2026-05-03 22:19 | 27.27102 | -82.23915 | 35051 ft | 478 kts | 161° |
| 2026-05-03 22:19 | 27.21320 | -82.20233 | 34960 ft | 479 kts | 161° |
| 2026-05-03 22:19 | 27.18419 | -82.18396 | 34636 ft | 477 kts | 161° |
| 2026-05-03 22:20 | 27.15524 | -82.16567 | 34406 ft | 478 kts | 161° |
| 2026-05-03 22:20 | 27.12664 | -82.14763 | 34181 ft | 479 kts | 161° |
| 2026-05-03 22:20 | 27.09753 | -82.12927 | 33616 ft | 480 kts | 161° |
| 2026-05-03 22:20 | 27.06849 | -82.11093 | 33098 ft | 477 kts | 160° |
| 2026-05-03 22:21 | 27.03959 | -82.09264 | 32549 ft | 479 kts | 160° |
| 2026-05-03 22:21 | 27.01041 | -82.07425 | 31992 ft | 482 kts | 159° |
| 2026-05-03 22:21 | 26.98128 | -82.05575 | 31441 ft | 482 kts | 157° |
| 2026-05-03 22:21 | 26.95398 | -82.03336 | 30884 ft | 495 kts | 145° |
| 2026-05-03 22:22 | 26.92954 | -82.00555 | 30302 ft | 503 kts | 140° |
| 2026-05-03 22:22 | 26.90561 | -81.97708 | 29675 ft | 501 kts | 140° |
| 2026-05-03 22:22 | 26.88180 | -81.94876 | 29099 ft | 497 kts | 140° |
| 2026-05-03 22:22 | 26.85813 | -81.92070 | 28534 ft | 494 kts | 140° |
| 2026-05-03 22:23 | 26.83458 | -81.89290 | 27963 ft | 489 kts | 140° |
| 2026-05-03 22:23 | 26.81120 | -81.86538 | 27402 ft | 485 kts | 140° |
| 2026-05-03 22:23 | 26.78805 | -81.83813 | 26844 ft | 481 kts | 140° |
| 2026-05-03 22:23 | 26.76511 | -81.81113 | 26263 ft | 477 kts | 140° |
| 2026-05-03 22:24 | 26.74233 | -81.78445 | 25731 ft | 472 kts | 140° |
| 2026-05-03 22:24 | 26.71993 | -81.75839 | 25193 ft | 468 kts | 141° |
| 2026-05-03 22:24 | 26.69741 | -81.73228 | 24656 ft | 464 kts | 141° |
| 2026-05-03 22:24 | 26.67510 | -81.70642 | 24218 ft | 458 kts | 141° |
| 2026-05-03 22:25 | 26.65377 | -81.68150 | 24061 ft | 429 kts | 141° |
| 2026-05-03 22:25 | 26.63399 | -81.65807 | 23923 ft | 402 kts | 139° |
| 2026-05-03 22:25 | 26.61684 | -81.63388 | 23444 ft | 391 kts | 135° |
| 2026-05-03 22:25 | 26.60062 | -81.60991 | 22702 ft | 383 kts | 134° |
| 2026-05-03 22:26 | 26.58472 | -81.58630 | 21922 ft | 377 kts | 134° |
| 2026-05-03 22:26 | 26.56908 | -81.56301 | 21316 ft | 374 kts | 134° |
| 2026-05-03 22:26 | 26.55340 | -81.53977 | 20880 ft | 375 kts | 134° |
| 2026-05-03 22:26 | 26.53777 | -81.51660 | 20444 ft | 371 kts | 134° |
| 2026-05-03 22:27 | 26.52231 | -81.49367 | 19999 ft | 368 kts | 134° |
| 2026-05-03 22:27 | 26.50695 | -81.47091 | 19583 ft | 366 kts | 134° |
| 2026-05-03 22:27 | 26.49169 | -81.44827 | 19164 ft | 363 kts | 134° |
| 2026-05-03 22:27 | 26.47658 | -81.42580 | 18740 ft | 361 kts | 133° |
| 2026-05-03 22:28 | 26.46151 | -81.40343 | 18333 ft | 360 kts | 133° |
| 2026-05-03 22:28 | 26.44643 | -81.38112 | 17864 ft | 359 kts | 133° |
| 2026-05-03 22:28 | 26.43158 | -81.35922 | 17449 ft | 357 kts | 133° |
| 2026-05-03 22:28 | 26.41664 | -81.33718 | 17049 ft | 355 kts | 133° |
| 2026-05-03 22:29 | 26.40155 | -81.31545 | 16635 ft | 353 kts | 135° |
| 2026-05-03 22:29 | 26.38608 | -81.29436 | 16233 ft | 350 kts | 136° |
| 2026-05-03 22:29 | 26.37049 | -81.27371 | 15973 ft | 344 kts | 136° |
| 2026-05-03 22:29 | 26.35491 | -81.25327 | 15461 ft | 345 kts | 136° |
| 2026-05-03 22:30 | 26.33954 | -81.23307 | 15156 ft | 341 kts | 136° |
| 2026-05-03 22:30 | 26.32413 | -81.21278 | 14787 ft | 339 kts | 136° |
| 2026-05-03 22:30 | 26.30913 | -81.19284 | 14540 ft | 334 kts | 135° |
| 2026-05-03 22:30 | 26.29435 | -81.17310 | 14190 ft | 329 kts | 135° |
| 2026-05-03 22:31 | 26.27976 | -81.15362 | 13546 ft | 325 kts | 135° |
| 2026-05-03 22:31 | 26.26533 | -81.13453 | 13086 ft | 323 kts | 135° |
| 2026-05-03 22:31 | 26.25080 | -81.11544 | 12701 ft | 322 kts | 135° |
| 2026-05-03 22:31 | 26.23632 | -81.09647 | 12326 ft | 321 kts | 135° |
| 2026-05-03 22:32 | 26.22191 | -81.07757 | 11961 ft | 319 kts | 135° |
| 2026-05-03 22:32 | 26.20754 | -81.05874 | 11588 ft | 319 kts | 135° |
| 2026-05-03 22:32 | 26.19324 | -81.03996 | 11223 ft | 317 kts | 135° |
| 2026-05-03 22:32 | 26.17901 | -81.02124 | 10864 ft | 316 kts | 134° |
| 2026-05-03 22:33 | 26.16503 | -81.00285 | 10496 ft | 315 kts | 134° |
| 2026-05-03 22:33 | 26.15217 | -80.98303 | 10125 ft | 318 kts | 122° |
| 2026-05-03 22:33 | 26.14399 | -80.96000 | 9717 ft | 322 kts | 105° |
| 2026-05-03 22:33 | 26.13992 | -80.93566 | 9455 ft | 317 kts | 102° |
| 2026-05-03 22:34 | 26.13600 | -80.91136 | 9011 ft | 318 kts | 102° |
| 2026-05-03 22:34 | 26.13204 | -80.88743 | 8789 ft | 311 kts | 102° |
| 2026-05-03 22:34 | 26.12812 | -80.86388 | 8495 ft | 308 kts | 102° |
| 2026-05-03 22:34 | 26.12421 | -80.84050 | 8167 ft | 306 kts | 102° |
| 2026-05-03 22:35 | 26.12033 | -80.81730 | 7823 ft | 303 kts | 102° |
| 2026-05-03 22:35 | 26.11650 | -80.79439 | 7327 ft | 300 kts | 102° |
| 2026-05-03 22:35 | 26.11268 | -80.77167 | 6898 ft | 296 kts | 101° |
| 2026-05-03 22:35 | 26.10900 | -80.74989 | 6760 ft | 275 kts | 102° |
| 2026-05-03 22:36 | 26.10565 | -80.73002 | 6662 ft | 249 kts | 102° |
| 2026-05-03 22:36 | 26.10265 | -80.71209 | 6548 ft | 225 kts | 102° |
| 2026-05-03 22:36 | 26.09982 | -80.69533 | 6312 ft | 217 kts | 102° |
| 2026-05-03 22:36 | 26.09700 | -80.67881 | 6223 ft | 218 kts | 102° |
| 2026-05-03 22:37 | 26.09418 | -80.66226 | 6110 ft | 218 kts | 102° |
| 2026-05-03 22:37 | 26.09137 | -80.64572 | 5994 ft | 217 kts | 102° |
| 2026-05-03 22:37 | 26.08859 | -80.62923 | 5887 ft | 217 kts | 102° |
| 2026-05-03 22:37 | 26.08582 | -80.61276 | 5778 ft | 217 kts | 102° |
| 2026-05-03 22:38 | 26.08304 | -80.59630 | 5655 ft | 216 kts | 102° |
| 2026-05-03 22:38 | 26.08027 | -80.57989 | 5542 ft | 215 kts | 102° |
| 2026-05-03 22:38 | 26.07750 | -80.56354 | 5432 ft | 215 kts | 102° |
| 2026-05-03 22:38 | 26.07473 | -80.54719 | 5300 ft | 215 kts | 102° |
| 2026-05-03 22:39 | 26.07195 | -80.53085 | 5205 ft | 215 kts | 102° |
| 2026-05-03 22:39 | 26.06880 | -80.51465 | 5091 ft | 215 kts | 99° |
| 2026-05-03 22:39 | 26.06759 | -80.49818 | 4988 ft | 214 kts | 93° |
| 2026-05-03 22:39 | 26.06735 | -80.48171 | 4820 ft | 209 kts | 91° |
| 2026-05-03 22:40 | 26.06730 | -80.46617 | 4627 ft | 193 kts | 90° |
| 2026-05-03 22:40 | 26.06725 | -80.45151 | 4540 ft | 190 kts | 90° |
| 2026-05-03 22:40 | 26.06720 | -80.43685 | 4422 ft | 189 kts | 91° |
| 2026-05-03 22:40 | 26.06714 | -80.42226 | 4286 ft | 188 kts | 91° |
| 2026-05-03 22:41 | 26.06709 | -80.40770 | 4210 ft | 190 kts | 91° |
| 2026-05-03 22:41 | 26.06703 | -80.39305 | 4012 ft | 189 kts | 91° |
| 2026-05-03 22:41 | 26.06697 | -80.37851 | 3783 ft | 187 kts | 91° |
| 2026-05-03 22:41 | 26.06691 | -80.36406 | 3548 ft | 187 kts | 92° |
| 2026-05-03 22:42 | 26.06684 | -80.34965 | 3312 ft | 186 kts | 92° |
| 2026-05-03 22:42 | 26.06678 | -80.33527 | 3069 ft | 186 kts | 91° |
| 2026-05-03 22:42 | 26.06672 | -80.32091 | 2821 ft | 186 kts | 92° |
| 2026-05-03 22:42 | 26.06665 | -80.30654 | 2588 ft | 184 kts | 92° |
| 2026-05-03 22:43 | 26.06659 | -80.29267 | 2346 ft | 174 kts | 92° |
| 2026-05-03 22:43 | 26.06652 | -80.27941 | 2130 ft | 169 kts | 90° |
| 2026-05-03 22:43 | 26.06646 | -80.26646 | 1917 ft | 166 kts | 93° |
| 2026-05-03 22:43 | 26.06639 | -80.25377 | 1717 ft | 165 kts | 91° |
| 2026-05-03 22:44 | 26.06633 | -80.24100 | 1493 ft | 164 kts | 94° |
| 2026-05-03 22:44 | 26.06626 | -80.22832 | 1291 ft | 165 kts | 94° |
| 2026-05-03 22:44 | 26.06620 | -80.21568 | 1074 ft | 162 kts | 93° |
| 2026-05-03 22:44 | 26.06613 | -80.20323 | 859 ft | 160 kts | 90° |
| 2026-05-03 22:45 | 26.06602 | -80.19104 | 634 ft | 156 kts | 89° |
| 2026-05-03 22:45 | 26.06596 | -80.17919 | 428 ft | 151 kts | 88° |
| 2026-05-03 22:45 | 26.06592 | -80.16757 | 238 ft | 150 kts | 85° |
| 2026-05-03 22:45 | 26.06587 | -80.15602 | 38 ft | 148 kts | 86° |
| 2026-05-03 22:46 | 26.06590 | -80.14609 | 45 ft | 102 kts | 91° |
| 2026-05-03 22:46 | 26.06607 | -80.14251 | 52 ft | 17 kts | 58° |
| 2026-05-03 22:46 | 26.06668 | -80.14233 | 52 ft | 8 kts | 345° |
| 2026-05-03 22:46 | 26.06690 | -80.14294 | 50 ft | 10 kts | 272° |
| 2026-05-03 22:47 | 26.06690 | -80.14315 | 50 ft | 0 kts | 270° |
| 2026-05-03 22:47 | 26.06690 | -80.14359 | 49 ft | 10 kts | 271° |
| 2026-05-03 22:47 | 26.06691 | -80.14453 | 46 ft | 14 kts | 270° |
| 2026-05-03 22:48 | 26.06690 | -80.14575 | 43 ft | 17 kts | 268° |
| 2026-05-03 22:48 | 26.06690 | -80.14716 | 41 ft | 19 kts | 272° |
| 2026-05-03 22:48 | 26.06694 | -80.14869 | 40 ft | 20 kts | 271° |
| 2026-05-03 22:48 | 26.06695 | -80.15034 | 38 ft | 22 kts | 270° |
| 2026-05-03 22:49 | 26.06761 | -80.15133 | 36 ft | 18 kts | 358° |
| 2026-05-03 22:49 | 26.06894 | -80.15130 | 33 ft | 20 kts | 0° |
| 2026-05-03 22:49 | 26.07035 | -80.15121 | 28 ft | 20 kts | 16° |
| 2026-05-03 22:49 | 26.07136 | -80.15029 | 23 ft | 12 kts | 45° |
| 2026-05-03 22:50 | 26.07160 | -80.14944 | 24 ft | 13 kts | 119° |
| 2026-05-03 22:50 | 26.07103 | -80.14863 | 24 ft | 13 kts | 115° |
| 2026-05-03 22:50 | 26.07088 | -80.14763 | 28 ft | 10 kts | 99° |
| 2026-05-03 22:50 | 26.07087 | -80.14755 | 26 ft | 0 kts | 99° |